sensor_id;sensor_type;location;lat;lon;timestamp;pressure;altitude;pressure_sealevel;temperature
73685;BMP280;61985;51.070;14.064;2023-02-26T00:02:22;97947.25;;;-1.63
73685;BMP280;61985;51.070;14.064;2023-02-26T00:04:47;97949.19;;;-1.60
73685;BMP280;61985;51.070;14.064;2023-02-26T00:07:13;97946.53;;;-1.60
73685;BMP280;61985;51.070;14.064;2023-02-26T00:09:38;97945.75;;;-1.64
73685;BMP280;61985;51.070;14.064;2023-02-26T00:12:04;97945.44;;;-1.59
73685;BMP280;61985;51.070;14.064;2023-02-26T00:14:29;97952.66;;;-1.56
73685;BMP280;61985;51.070;14.064;2023-02-26T00:17:17;97954.56;;;-1.56
73685;BMP280;61985;51.070;14.064;2023-02-26T00:19:47;97959.06;;;-1.57
73685;BMP280;61985;51.070;14.064;2023-02-26T00:22:12;97959.06;;;-1.57
73685;BMP280;61985;51.070;14.064;2023-02-26T00:24:38;97957.63;;;-1.51
73685;BMP280;61985;51.070;14.064;2023-02-26T00:27:03;97961.06;;;-1.50
73685;BMP280;61985;51.070;14.064;2023-02-26T00:29:28;97964.06;;;-1.52
73685;BMP280;61985;51.070;14.064;2023-02-26T00:31:54;97967.50;;;-1.48
73685;BMP280;61985;51.070;14.064;2023-02-26T00:34:19;97968.16;;;-1.54
73685;BMP280;61985;51.070;14.064;2023-02-26T00:36:56;97974.28;;;-1.50
73685;BMP280;61985;51.070;14.064;2023-02-26T00:39:38;97978.38;;;-1.53
73685;BMP280;61985;51.070;14.064;2023-02-26T00:42:05;97977.97;;;-1.55
73685;BMP280;61985;51.070;14.064;2023-02-26T00:44:31;97983.66;;;-1.53
73685;BMP280;61985;51.070;14.064;2023-02-26T00:47:06;97979.03;;;-1.59
73685;BMP280;61985;51.070;14.064;2023-02-26T00:49:42;97975.25;;;-1.58
73685;BMP280;61985;51.070;14.064;2023-02-26T00:52:14;97984.41;;;-1.52
73685;BMP280;61985;51.070;14.064;2023-02-26T00:54:43;97984.75;;;-1.54
73685;BMP280;61985;51.070;14.064;2023-02-26T00:57:08;97988.53;;;-1.55
73685;BMP280;61985;51.070;14.064;2023-02-26T00:59:34;97991.19;;;-1.55
73685;BMP280;61985;51.070;14.064;2023-02-26T01:01:59;97985.28;;;-1.68
73685;BMP280;61985;51.070;14.064;2023-02-26T01:04:24;97980.78;;;-1.67
73685;BMP280;61985;51.070;14.064;2023-02-26T01:06:53;97981.84;;;-1.72
73685;BMP280;61985;51.070;14.064;2023-02-26T01:11:52;97996.22;;;-1.69
73685;BMP280;61985;51.070;14.064;2023-02-26T01:14:18;97984.13;;;-1.70
73685;BMP280;61985;51.070;14.064;2023-02-26T01:16:56;97994.00;;;-1.67
73685;BMP280;61985;51.070;14.064;2023-02-26T01:19:48;98002.63;;;-1.70
73685;BMP280;61985;51.070;14.064;2023-02-26T01:22:21;98005.25;;;-1.70
73685;BMP280;61985;51.070;14.064;2023-02-26T01:24:48;97999.50;;;-1.76
73685;BMP280;61985;51.070;14.064;2023-02-26T01:27:16;97995.81;;;-1.71
73685;BMP280;61985;51.070;14.064;2023-02-26T01:29:41;98002.53;;;-1.74
73685;BMP280;61985;51.070;14.064;2023-02-26T01:32:13;98000.34;;;-1.72
73685;BMP280;61985;51.070;14.064;2023-02-26T01:34:59;98015.06;;;-1.71
73685;BMP280;61985;51.070;14.064;2023-02-26T01:37:48;98012.47;;;-1.67
73685;BMP280;61985;51.070;14.064;2023-02-26T01:40:45;98019.63;;;-1.68
73685;BMP280;61985;51.070;14.064;2023-02-26T01:43:19;98021.50;;;-1.68
73685;BMP280;61985;51.070;14.064;2023-02-26T01:46:15;98016.94;;;-1.71
73685;BMP280;61985;51.070;14.064;2023-02-26T01:51:12;98016.22;;;-1.68
73685;BMP280;61985;51.070;14.064;2023-02-26T01:53:38;98033.38;;;-1.58
73685;BMP280;61985;51.070;14.064;2023-02-26T01:56:10;98035.97;;;-1.62
73685;BMP280;61985;51.070;14.064;2023-02-26T01:58:36;98033.84;;;-1.53
73685;BMP280;61985;51.070;14.064;2023-02-26T02:01:02;98043.19;;;-1.59
73685;BMP280;61985;51.070;14.064;2023-02-26T02:03:31;98045.53;;;-1.54
73685;BMP280;61985;51.070;14.064;2023-02-26T02:06:05;98050.00;;;-1.58
73685;BMP280;61985;51.070;14.064;2023-02-26T02:08:32;98045.53;;;-1.54
73685;BMP280;61985;51.070;14.064;2023-02-26T02:11:00;98059.53;;;-1.53
73685;BMP280;61985;51.070;14.064;2023-02-26T02:16:11;98056.81;;;-1.57
73685;BMP280;61985;51.070;14.064;2023-02-26T02:18:59;98061.81;;;-1.52
73685;BMP280;61985;51.070;14.064;2023-02-26T02:21:57;98066.31;;;-1.52
73685;BMP280;61985;51.070;14.064;2023-02-26T02:24:38;98064.09;;;-1.50
73685;BMP280;61985;51.070;14.064;2023-02-26T02:30:30;98073.47;;;-1.53
73685;BMP280;61985;51.070;14.064;2023-02-26T02:33:00;98073.09;;;-1.55
73685;BMP280;61985;51.070;14.064;2023-02-26T02:35:31;98065.97;;;-1.51
73685;BMP280;61985;51.070;14.064;2023-02-26T02:38:06;98080.06;;;-1.43
73685;BMP280;61985;51.070;14.064;2023-02-26T02:40:36;98083.41;;;-1.46
73685;BMP280;61985;51.070;14.064;2023-02-26T02:43:10;98083.56;;;-1.58
73685;BMP280;61985;51.070;14.064;2023-02-26T02:45:50;98097.56;;;-1.58
73685;BMP280;61985;51.070;14.064;2023-02-26T02:48:28;98095.69;;;-1.57
73685;BMP280;61985;51.070;14.064;2023-02-26T02:50:59;98094.31;;;-1.48
73685;BMP280;61985;51.070;14.064;2023-02-26T02:53:46;98110.19;;;-1.48
73685;BMP280;61985;51.070;14.064;2023-02-26T02:56:22;98119.94;;;-1.52
73685;BMP280;61985;51.070;14.064;2023-02-26T02:58:58;98113.19;;;-1.49
73685;BMP280;61985;51.070;14.064;2023-02-26T03:01:26;98125.63;;;-1.50
73685;BMP280;61985;51.070;14.064;2023-02-26T03:04:04;98125.28;;;-1.48
73685;BMP280;61985;51.070;14.064;2023-02-26T03:06:30;98126.03;;;-1.48
73685;BMP280;61985;51.070;14.064;2023-02-26T03:08:56;98123.69;;;-1.53
73685;BMP280;61985;51.070;14.064;2023-02-26T03:11:22;98131.66;;;-1.49
73685;BMP280;61985;51.070;14.064;2023-02-26T03:13:48;98133.97;;;-1.48
73685;BMP280;61985;51.070;14.064;2023-02-26T03:19:04;98139.25;;;-1.48
73685;BMP280;61985;51.070;14.064;2023-02-26T03:21:48;98141.47;;;-1.50
73685;BMP280;61985;51.070;14.064;2023-02-26T03:24:21;98143.84;;;-1.45
73685;BMP280;61985;51.070;14.064;2023-02-26T03:29:41;98157.47;;;-1.42
73685;BMP280;61985;51.070;14.064;2023-02-26T03:32:15;98153.94;;;-1.50
73685;BMP280;61985;51.070;14.064;2023-02-26T03:34:46;98158.19;;;-1.46
73685;BMP280;61985;51.070;14.064;2023-02-26T03:37:21;98157.75;;;-1.48
73685;BMP280;61985;51.070;14.064;2023-02-26T03:39:50;98171.66;;;-1.51
73685;BMP280;61985;51.070;14.064;2023-02-26T03:42:22;98175.06;;;-1.50
73685;BMP280;61985;51.070;14.064;2023-02-26T03:45:09;98192.78;;;-1.51
73685;BMP280;61985;51.070;14.064;2023-02-26T03:47:37;98192.03;;;-1.51
73685;BMP280;61985;51.070;14.064;2023-02-26T03:50:08;98193.22;;;-1.49
73685;BMP280;61985;51.070;14.064;2023-02-26T03:52:38;98202.59;;;-1.51
73685;BMP280;61985;51.070;14.064;2023-02-26T03:55:11;98205.31;;;-1.48
73685;BMP280;61985;51.070;14.064;2023-02-26T03:57:37;98211.28;;;-1.51
73685;BMP280;61985;51.070;14.064;2023-02-26T04:00:05;98206.34;;;-1.52
73685;BMP280;61985;51.070;14.064;2023-02-26T04:02:35;98205.75;;;-1.46
73685;BMP280;61985;51.070;14.064;2023-02-26T04:05:09;98216.72;;;-1.44
73685;BMP280;61985;51.070;14.064;2023-02-26T04:07:35;98218.13;;;-1.50
73685;BMP280;61985;51.070;14.064;2023-02-26T04:10:01;98232.63;;;-1.40
73685;BMP280;61985;51.070;14.064;2023-02-26T04:12:27;98217.81;;;-1.45
73685;BMP280;61985;51.070;14.064;2023-02-26T04:14:54;98227.47;;;-1.52
73685;BMP280;61985;51.070;14.064;2023-02-26T04:17:20;98238.75;;;-1.55
73685;BMP280;61985;51.070;14.064;2023-02-26T04:19:46;98226.78;;;-1.49
73685;BMP280;61985;51.070;14.064;2023-02-26T04:22:11;98235.06;;;-1.51
73685;BMP280;61985;51.070;14.064;2023-02-26T04:24:37;98240.16;;;-1.42
73685;BMP280;61985;51.070;14.064;2023-02-26T04:27:02;98244.25;;;-1.45
73685;BMP280;61985;51.070;14.064;2023-02-26T04:29:28;98245.72;;;-1.47
73685;BMP280;61985;51.070;14.064;2023-02-26T04:31:53;98251.34;;;-1.49
73685;BMP280;61985;51.070;14.064;2023-02-26T04:34:18;98250.84;;;-1.54
73685;BMP280;61985;51.070;14.064;2023-02-26T04:36:44;98252.63;;;-1.42
73685;BMP280;61985;51.070;14.064;2023-02-26T04:39:09;98265.41;;;-1.45
73685;BMP280;61985;51.070;14.064;2023-02-26T04:41:36;98263.31;;;-1.55
73685;BMP280;61985;51.070;14.064;2023-02-26T04:44:02;98274.28;;;-1.53
73685;BMP280;61985;51.070;14.064;2023-02-26T04:46:28;98273.19;;;-1.52
73685;BMP280;61985;51.070;14.064;2023-02-26T04:48:53;98273.53;;;-1.53
73685;BMP280;61985;51.070;14.064;2023-02-26T04:51:19;98273.94;;;-1.51
73685;BMP280;61985;51.070;14.064;2023-02-26T04:53:44;98274.34;;;-1.49
73685;BMP280;61985;51.070;14.064;2023-02-26T04:56:09;98277.28;;;-1.54
73685;BMP280;61985;51.070;14.064;2023-02-26T04:58:35;98283.06;;;-1.49
73685;BMP280;61985;51.070;14.064;2023-02-26T05:01:00;98287.16;;;-1.51
73685;BMP280;61985;51.070;14.064;2023-02-26T05:03:25;98284.44;;;-1.55
73685;BMP280;61985;51.070;14.064;2023-02-26T05:05:51;98295.78;;;-1.54
73685;BMP280;61985;51.070;14.064;2023-02-26T05:08:16;98298.47;;;-1.51
73685;BMP280;61985;51.070;14.064;2023-02-26T05:10:42;98297.72;;;-1.51
73685;BMP280;61985;51.070;14.064;2023-02-26T05:13:07;98309.06;;;-1.51
73685;BMP280;61985;51.070;14.064;2023-02-26T05:15:32;98309.34;;;-1.56
73685;BMP280;61985;51.070;14.064;2023-02-26T05:17:58;98314.50;;;-1.44
73685;BMP280;61985;51.070;14.064;2023-02-26T05:20:23;98317.41;;;-1.49
73685;BMP280;61985;51.070;14.064;2023-02-26T05:22:49;98324.91;;;-1.51
73685;BMP280;61985;51.070;14.064;2023-02-26T05:25:14;98313.06;;;-1.57
73685;BMP280;61985;51.070;14.064;2023-02-26T05:27:41;98307.94;;;-1.50
73685;BMP280;61985;51.070;14.064;2023-02-26T05:30:07;98313.66;;;-1.48
73685;BMP280;61985;51.070;14.064;2023-02-26T05:32:33;98326.72;;;-1.55
73685;BMP280;61985;51.070;14.064;2023-02-26T05:34:58;98330.88;;;-1.54
73685;BMP280;61985;51.070;14.064;2023-02-26T05:37:24;98339.94;;;-1.55
73685;BMP280;61985;51.070;14.064;2023-02-26T05:39:49;98342.22;;;-1.53
73685;BMP280;61985;51.070;14.064;2023-02-26T05:42:14;98340.28;;;-1.56
73685;BMP280;61985;51.070;14.064;2023-02-26T05:44:40;98345.06;;;-1.62
73685;BMP280;61985;51.070;14.064;2023-02-26T05:47:05;98344.38;;;-1.59
73685;BMP280;61985;51.070;14.064;2023-02-26T05:49:31;98353.72;;;-1.62
73685;BMP280;61985;51.070;14.064;2023-02-26T05:51:56;98349.59;;;-1.63
73685;BMP280;61985;51.070;14.064;2023-02-26T05:54:21;98350.75;;;-1.60
73685;BMP280;61985;51.070;14.064;2023-02-26T05:56:47;98362.69;;;-1.66
73685;BMP280;61985;51.070;14.064;2023-02-26T05:59:12;98363.97;;;-1.60
73685;BMP280;61985;51.070;14.064;2023-02-26T06:01:38;98360.16;;;-1.63
73685;BMP280;61985;51.070;14.064;2023-02-26T06:04:04;98365.44;;;-1.63
73685;BMP280;61985;51.070;14.064;2023-02-26T06:06:30;98379.81;;;-1.60
73685;BMP280;61985;51.070;14.064;2023-02-26T06:08:56;98382.91;;;-1.58
73685;BMP280;61985;51.070;14.064;2023-02-26T06:11:21;98384.00;;;-1.59
73685;BMP280;61985;51.070;14.064;2023-02-26T06:13:48;98387.06;;;-1.57
73685;BMP280;61985;51.070;14.064;2023-02-26T06:16:13;98390.13;;;-1.55
73685;BMP280;61985;51.070;14.064;2023-02-26T06:18:39;98399.16;;;-1.56
73685;BMP280;61985;51.070;14.064;2023-02-26T06:21:04;98409.03;;;-1.53
73685;BMP280;61985;51.070;14.064;2023-02-26T06:23:30;98404.63;;;-1.49
73685;BMP280;61985;51.070;14.064;2023-02-26T06:25:55;98415.19;;;-1.49
73685;BMP280;61985;51.070;14.064;2023-02-26T06:28:20;98422.50;;;-1.42
73685;BMP280;61985;51.070;14.064;2023-02-26T06:30:48;98420.13;;;-1.47
73685;BMP280;61985;51.070;14.064;2023-02-26T06:33:14;98424.06;;;-1.41
73685;BMP280;61985;51.070;14.064;2023-02-26T06:35:39;98433.06;;;-1.42
73685;BMP280;61985;51.070;14.064;2023-02-26T06:38:06;98439.97;;;-1.37
73685;BMP280;61985;51.070;14.064;2023-02-26T06:40:32;98443.66;;;-1.42
73685;BMP280;61985;51.070;14.064;2023-02-26T06:42:57;98439.81;;;-1.45
73685;BMP280;61985;51.070;14.064;2023-02-26T06:45:23;98441.34;;;-1.44
73685;BMP280;61985;51.070;14.064;2023-02-26T06:47:49;98451.84;;;-1.31
73685;BMP280;61985;51.070;14.064;2023-02-26T06:50:15;98454.16;;;-1.30
73685;BMP280;61985;51.070;14.064;2023-02-26T06:52:41;98459.38;;;-1.33
73685;BMP280;61985;51.070;14.064;2023-02-26T06:55:06;98462.91;;;-1.26
73685;BMP280;61985;51.070;14.064;2023-02-26T06:57:32;98469.69;;;-1.28
73685;BMP280;61985;51.070;14.064;2023-02-26T06:59:57;98466.25;;;-1.29
73685;BMP280;61985;51.070;14.064;2023-02-26T07:02:26;98471.28;;;-1.23
73685;BMP280;61985;51.070;14.064;2023-02-26T07:05:01;98471.38;;;-1.20
73685;BMP280;61985;51.070;14.064;2023-02-26T07:07:29;98480.22;;;-1.12
73685;BMP280;61985;51.070;14.064;2023-02-26T07:09:54;98480.50;;;-1.17
73685;BMP280;61985;51.070;14.064;2023-02-26T07:12:20;98487.06;;;-1.11
73685;BMP280;61985;51.070;14.064;2023-02-26T07:14:48;98492.41;;;-1.08
73685;BMP280;61985;51.070;14.064;2023-02-26T07:17:13;98492.06;;;-1.06
73685;BMP280;61985;51.070;14.064;2023-02-26T07:19:53;98496.41;;;-0.98
73685;BMP280;61985;51.070;14.064;2023-02-26T07:22:19;98503.19;;;-0.81
73685;BMP280;61985;51.070;14.064;2023-02-26T07:25:07;98497.91;;;-0.81
73685;BMP280;61985;51.070;14.064;2023-02-26T07:27:33;98508.34;;;-0.88
73685;BMP280;61985;51.070;14.064;2023-02-26T07:29:59;98514.34;;;-0.91
73685;BMP280;61985;51.070;14.064;2023-02-26T07:32:24;98519.63;;;-0.91
73685;BMP280;61985;51.070;14.064;2023-02-26T07:42:59;98536.19;;;-0.94
73685;BMP280;61985;51.070;14.064;2023-02-26T07:48:26;98536.19;;;-0.94
73685;BMP280;61985;51.070;14.064;2023-02-26T10:07:05;98750.66;;;0.64
73685;BMP280;61985;51.070;14.064;2023-02-26T10:12:10;98765.22;;;1.13
73685;BMP280;61985;51.070;14.064;2023-02-26T10:14:56;98765.50;;;1.27
73685;BMP280;61985;51.070;14.064;2023-02-26T10:17:37;98771.28;;;1.33
73685;BMP280;61985;51.070;14.064;2023-02-26T10:20:19;98772.53;;;1.42
73685;BMP280;61985;51.070;14.064;2023-02-26T10:43:03;98803.38;;;1.70
73685;BMP280;61985;51.070;14.064;2023-02-26T10:51:23;98809.97;;;2.30
73685;BMP280;61985;51.070;14.064;2023-02-26T10:56:51;98810.56;;;2.20
73685;BMP280;61985;51.070;14.064;2023-02-26T11:01:59;98825.59;;;1.82
73685;BMP280;61985;51.070;14.064;2023-02-26T11:21:28;98828.50;;;1.99
73685;BMP280;61985;51.070;14.064;2023-02-26T11:24:03;98836.63;;;2.10
73685;BMP280;61985;51.070;14.064;2023-02-26T11:26:38;98833.28;;;2.13
73685;BMP280;61985;51.070;14.064;2023-02-26T11:29:35;98828.84;;;2.21
73685;BMP280;61985;51.070;14.064;2023-02-26T11:31:58;98837.34;;;2.07
73685;BMP280;61985;51.070;14.064;2023-02-26T11:34:25;98842.16;;;2.82
73685;BMP280;61985;51.070;14.064;2023-02-26T11:36:54;98844.25;;;2.65
73685;BMP280;61985;51.070;14.064;2023-02-26T11:39:41;98845.34;;;2.34
73685;BMP280;61985;51.070;14.064;2023-02-26T11:42:12;98843.09;;;2.63
73685;BMP280;61985;51.070;14.064;2023-02-26T11:44:44;98843.47;;;3.33
73685;BMP280;61985;51.070;14.064;2023-02-26T11:47:25;98836.81;;;3.12
73685;BMP280;61985;51.070;14.064;2023-02-26T11:49:54;98838.84;;;3.22
73685;BMP280;61985;51.070;14.064;2023-02-26T11:52:43;98841.56;;;2.96
73685;BMP280;61985;51.070;14.064;2023-02-26T11:55:21;98839.53;;;2.25
73685;BMP280;61985;51.070;14.064;2023-02-26T12:00:25;98841.00;;;1.72
73685;BMP280;61985;51.070;14.064;2023-02-26T12:03:38;98843.81;;;1.60
73685;BMP280;61985;51.070;14.064;2023-02-26T12:06:24;98841.53;;;1.39
73685;BMP280;61985;51.070;14.064;2023-02-26T12:08:50;98843.81;;;1.17
73685;BMP280;61985;51.070;14.064;2023-02-26T12:30:46;98875.63;;;1.37
73685;BMP280;61985;51.070;14.064;2023-02-26T12:44:10;98874.09;;;2.02
73685;BMP280;61985;51.070;14.064;2023-02-26T12:46:49;98884.09;;;1.85
73685;BMP280;61985;51.070;14.064;2023-02-26T12:52:31;98880.75;;;1.92
73685;BMP280;61985;51.070;14.064;2023-02-26T12:55:08;98891.13;;;1.97
73685;BMP280;61985;51.070;14.064;2023-02-26T12:58:03;98889.13;;;2.40
73685;BMP280;61985;51.070;14.064;2023-02-26T13:08:27;98897.13;;;1.71
73685;BMP280;61985;51.070;14.064;2023-02-26T13:13:40;98897.38;;;2.08
73685;BMP280;61985;51.070;14.064;2023-02-26T13:22:03;98903.34;;;2.51
73685;BMP280;61985;51.070;14.064;2023-02-26T13:24:34;98913.38;;;1.89
73685;BMP280;61985;51.070;14.064;2023-02-26T13:27:01;98920.38;;;1.35
73685;BMP280;61985;51.070;14.064;2023-02-26T13:29:34;98914.63;;;0.78
73685;BMP280;61985;51.070;14.064;2023-02-26T13:32:04;98911.41;;;0.68
73685;BMP280;61985;51.070;14.064;2023-02-26T13:34:43;98912.59;;;0.71
73685;BMP280;61985;51.070;14.064;2023-02-26T13:37:21;98905.81;;;0.74
73685;BMP280;61985;51.070;14.064;2023-02-26T13:40:03;98906.56;;;0.90
73685;BMP280;61985;51.070;14.064;2023-02-26T13:42:47;98911.53;;;1.50
73685;BMP280;61985;51.070;14.064;2023-02-26T13:48:16;98905.16;;;2.74
73685;BMP280;61985;51.070;14.064;2023-02-26T13:55:48;98927.31;;;2.82
73685;BMP280;61985;51.070;14.064;2023-02-26T14:01:14;98919.97;;;3.02
73685;BMP280;61985;51.070;14.064;2023-02-26T14:03:51;98915.56;;;2.83
73685;BMP280;61985;51.070;14.064;2023-02-26T14:08:56;98921.53;;;3.74
73685;BMP280;61985;51.070;14.064;2023-02-26T14:14:16;98916.88;;;3.64
73685;BMP280;61985;51.070;14.064;2023-02-26T14:16:44;98920.19;;;3.50
73685;BMP280;61985;51.070;14.064;2023-02-26T14:19:25;98922.97;;;3.31
73685;BMP280;61985;51.070;14.064;2023-02-26T14:24:37;98921.63;;;3.85
73685;BMP280;61985;51.070;14.064;2023-02-26T14:29:40;98930.09;;;3.94
73685;BMP280;61985;51.070;14.064;2023-02-26T14:34:44;98934.34;;;2.40
73685;BMP280;61985;51.070;14.064;2023-02-26T14:37:14;98946.78;;;2.09
73685;BMP280;61985;51.070;14.064;2023-02-26T14:40:19;98954.81;;;1.51
73685;BMP280;61985;51.070;14.064;2023-02-26T14:42:50;98961.06;;;1.03
73685;BMP280;61985;51.070;14.064;2023-02-26T14:47:42;98955.97;;;0.47
73685;BMP280;61985;51.070;14.064;2023-02-26T14:50:14;98962.50;;;0.17
73685;BMP280;61985;51.070;14.064;2023-02-26T15:03:45;98956.72;;;-0.01
73685;BMP280;61985;51.070;14.064;2023-02-26T15:06:27;98958.09;;;0.09
73685;BMP280;61985;51.070;14.064;2023-02-26T15:15:02;98967.72;;;0.30
73685;BMP280;61985;51.070;14.064;2023-02-26T15:21:10;98969.91;;;0.60
73685;BMP280;61985;51.070;14.064;2023-02-26T15:23:53;98978.78;;;0.99
73685;BMP280;61985;51.070;14.064;2023-02-26T15:26:32;98982.72;;;1.05
73685;BMP280;61985;51.070;14.064;2023-02-26T15:28:59;98979.06;;;0.78
73685;BMP280;61985;51.070;14.064;2023-02-26T15:31:31;98979.41;;;0.77
73685;BMP280;61985;51.070;14.064;2023-02-26T15:33:57;98982.50;;;0.63
73685;BMP280;61985;51.070;14.064;2023-02-26T15:36:22;98989.09;;;0.53
73685;BMP280;61985;51.070;14.064;2023-02-26T15:38:59;98991.28;;;0.35
73685;BMP280;61985;51.070;14.064;2023-02-26T15:41:27;98995.13;;;0.22
73685;BMP280;61985;51.070;14.064;2023-02-26T15:44:04;98996.50;;;0.15
73685;BMP280;61985;51.070;14.064;2023-02-26T15:46:36;99000.66;;;0.01
73685;BMP280;61985;51.070;14.064;2023-02-26T15:49:26;99005.28;;;0.04
73685;BMP280;61985;51.070;14.064;2023-02-26T15:51:56;98995.53;;;0.08
73685;BMP280;61985;51.070;14.064;2023-02-26T15:54:24;98991.69;;;0.05
73685;BMP280;61985;51.070;14.064;2023-02-26T15:56:52;98995.84;;;-0.10
73685;BMP280;61985;51.070;14.064;2023-02-26T15:59:20;98994.16;;;-0.02
73685;BMP280;61985;51.070;14.064;2023-02-26T16:01:47;99002.38;;;0.09
73685;BMP280;61985;51.070;14.064;2023-02-26T16:04:16;98998.78;;;0.01
73685;BMP280;61985;51.070;14.064;2023-02-26T16:06:47;99009.97;;;-0.06
73685;BMP280;61985;51.070;14.064;2023-02-26T16:09:19;99012.34;;;-0.01
73685;BMP280;61985;51.070;14.064;2023-02-26T16:11:45;99012.34;;;-0.01
73685;BMP280;61985;51.070;14.064;2023-02-26T16:14:20;99005.09;;;-0.04
73685;BMP280;61985;51.070;14.064;2023-02-26T16:16:52;99003.66;;;-0.01
73685;BMP280;61985;51.070;14.064;2023-02-26T16:19:24;99009.19;;;-0.06
73685;BMP280;61985;51.070;14.064;2023-02-26T16:21:54;99008.66;;;-0.12
73685;BMP280;61985;51.070;14.064;2023-02-26T16:24:20;99020.69;;;-0.14
73685;BMP280;61985;51.070;14.064;2023-02-26T16:26:55;99015.75;;;-0.28
73685;BMP280;61985;51.070;14.064;2023-02-26T16:29:26;99012.09;;;-0.24
73685;BMP280;61985;51.070;14.064;2023-02-26T16:31:54;99020.84;;;-0.36
73685;BMP280;61985;51.070;14.064;2023-02-26T16:36:49;99026.03;;;-0.51
73685;BMP280;61985;51.070;14.064;2023-02-26T16:39:29;99023.72;;;-0.53
73685;BMP280;61985;51.070;14.064;2023-02-26T16:42:19;99035.44;;;-0.54
73685;BMP280;61985;51.070;14.064;2023-02-26T16:45:02;99035.66;;;-0.59
73685;BMP280;61985;51.070;14.064;2023-02-26T16:47:39;99045.56;;;-0.56
73685;BMP280;61985;51.070;14.064;2023-02-26T16:50:14;99052.53;;;-0.64
73685;BMP280;61985;51.070;14.064;2023-02-26T16:52:40;99054.09;;;-0.63
73685;BMP280;61985;51.070;14.064;2023-02-26T16:55:05;99058.16;;;-0.65
73685;BMP280;61985;51.070;14.064;2023-02-26T16:57:37;99063.44;;;-0.65
73685;BMP280;61985;51.070;14.064;2023-02-26T17:00:06;99070.28;;;-0.64
73685;BMP280;61985;51.070;14.064;2023-02-26T17:02:36;99078.66;;;-0.62
73685;BMP280;61985;51.070;14.064;2023-02-26T17:05:23;99088.59;;;-0.72
73685;BMP280;61985;51.070;14.064;2023-02-26T17:07:55;99097.00;;;-0.69
73685;BMP280;61985;51.070;14.064;2023-02-26T17:10:32;99093.34;;;-0.90
73685;BMP280;61985;51.070;14.064;2023-02-26T17:13:33;99103.34;;;-0.95
73685;BMP280;61985;51.070;14.064;2023-02-26T17:16:07;99110.53;;;-0.96
73685;BMP280;61985;51.070;14.064;2023-02-26T17:18:34;99105.09;;;-0.99
73685;BMP280;61985;51.070;14.064;2023-02-26T17:21:00;99111.50;;;-1.13
73685;BMP280;61985;51.070;14.064;2023-02-26T17:23:31;99108.41;;;-1.02
73685;BMP280;61985;51.070;14.064;2023-02-26T17:25:57;99123.09;;;-1.05
73685;BMP280;61985;51.070;14.064;2023-02-26T17:28:28;99124.50;;;-1.08
73685;BMP280;61985;51.070;14.064;2023-02-26T17:30:55;99131.09;;;-1.14
73685;BMP280;61985;51.070;14.064;2023-02-26T17:33:21;99134.84;;;-1.15
73685;BMP280;61985;51.070;14.064;2023-02-26T17:35:47;99131.09;;;-1.14
73685;BMP280;61985;51.070;14.064;2023-02-26T17:38:14;99131.97;;;-1.22
73685;BMP280;61985;51.070;14.064;2023-02-26T17:40:41;99132.41;;;-1.20
73685;BMP280;61985;51.070;14.064;2023-02-26T17:43:07;99137.13;;;-1.26
73685;BMP280;61985;51.070;14.064;2023-02-26T17:45:35;99141.53;;;-1.30
73685;BMP280;61985;51.070;14.064;2023-02-26T17:48:00;99142.53;;;-1.43
73685;BMP280;61985;51.070;14.064;2023-02-26T17:53:05;99152.31;;;-1.56
73685;BMP280;61985;51.070;14.064;2023-02-26T17:55:31;99156.19;;;-1.53
73685;BMP280;61985;51.070;14.064;2023-02-26T17:57:57;99154.31;;;-1.53
73685;BMP280;61985;51.070;14.064;2023-02-26T18:00:22;99159.84;;;-1.46
73685;BMP280;61985;51.070;14.064;2023-02-26T18:02:48;99159.75;;;-1.37
73685;BMP280;61985;51.070;14.064;2023-02-26T18:05:15;99165.88;;;-1.24
73685;BMP280;61985;51.070;14.064;2023-02-26T18:07:41;99169.75;;;-1.21
73685;BMP280;61985;51.070;14.064;2023-02-26T18:10:07;99175.25;;;-1.27
73685;BMP280;61985;51.070;14.064;2023-02-26T18:12:35;99171.16;;;-1.24
73685;BMP280;61985;51.070;14.064;2023-02-26T18:15:02;99182.31;;;-1.18
73685;BMP280;61985;51.070;14.064;2023-02-26T18:17:28;99182.22;;;-1.22
73685;BMP280;61985;51.070;14.064;2023-02-26T18:19:56;99186.84;;;-1.19
73685;BMP280;61985;51.070;14.064;2023-02-26T18:22:22;99185.50;;;-1.25
73685;BMP280;61985;51.070;14.064;2023-02-26T18:24:52;99187.50;;;-1.22
73685;BMP280;61985;51.070;14.064;2023-02-26T18:27:23;99183.41;;;-1.32
73685;BMP280;61985;51.070;14.064;2023-02-26T18:29:49;99188.22;;;-1.34
73685;BMP280;61985;51.070;14.064;2023-02-26T18:32:17;99184.72;;;-1.47
73685;BMP280;61985;51.070;14.064;2023-02-26T18:34:43;99190.66;;;-1.50
73685;BMP280;61985;51.070;14.064;2023-02-26T18:37:20;99186.47;;;-1.51
73685;BMP280;61985;51.070;14.064;2023-02-26T18:39:46;99189.31;;;-1.56
73685;BMP280;61985;51.070;14.064;2023-02-26T18:42:26;99196.66;;;-1.62
73685;BMP280;61985;51.070;14.064;2023-02-26T18:44:52;99201.75;;;-1.56
73685;BMP280;61985;51.070;14.064;2023-02-26T18:47:19;99201.13;;;-1.53
73685;BMP280;61985;51.070;14.064;2023-02-26T18:49:45;99198.59;;;-1.50
73685;BMP280;61985;51.070;14.064;2023-02-26T18:52:11;99198.00;;;-1.55
73685;BMP280;61985;51.070;14.064;2023-02-26T18:54:36;99201.16;;;-1.62
73685;BMP280;61985;51.070;14.064;2023-02-26T18:57:05;99210.50;;;-1.65
73685;BMP280;61985;51.070;14.064;2023-02-26T18:59:31;99212.25;;;-1.69
73685;BMP280;61985;51.070;14.064;2023-02-26T19:01:58;99216.09;;;-1.66
73685;BMP280;61985;51.070;14.064;2023-02-26T19:04:24;99224.56;;;-1.73
73685;BMP280;61985;51.070;14.064;2023-02-26T19:06:49;99225.50;;;-1.77
73685;BMP280;61985;51.070;14.064;2023-02-26T19:09:15;99230.03;;;-1.78
73685;BMP280;61985;51.070;14.064;2023-02-26T19:11:40;99231.31;;;-1.84
73685;BMP280;61985;51.070;14.064;2023-02-26T19:14:07;99239.56;;;-1.86
73685;BMP280;61985;51.070;14.064;2023-02-26T19:16:32;99244.13;;;-2.04
73685;BMP280;61985;51.070;14.064;2023-02-26T19:19:02;99245.63;;;-1.94
73685;BMP280;61985;51.070;14.064;2023-02-26T19:21:29;99252.00;;;-1.95
73685;BMP280;61985;51.070;14.064;2023-02-26T19:23:58;99246.56;;;-1.99
73685;BMP280;61985;51.070;14.064;2023-02-26T19:26:23;99254.19;;;-1.97
73685;BMP280;61985;51.070;14.064;2023-02-26T19:28:49;99255.88;;;-1.92
73685;BMP280;61985;51.070;14.064;2023-02-26T19:31:14;99258.19;;;-1.91
73685;BMP280;61985;51.070;14.064;2023-02-26T19:33:40;99257.72;;;-1.84
73685;BMP280;61985;51.070;14.064;2023-02-26T19:36:05;99269.84;;;-1.83
73685;BMP280;61985;51.070;14.064;2023-02-26T19:38:31;99269.97;;;-1.80